Bow Island, Canada
Current Conditions -  °F | °C
As of 11:00 PM on Saturday 25 Oct 2014 (Local Time) from CYXH Reporting Station
Scattered Clouds Scattered Clouds  
Wind Chill: 39°   Ceiling: Unl
Heat Index: 39°   Visibility: 9mi
Dew Point: 36°   Wind: 3mph
Humidity: 87%   Direction: 250°WSW
Pressure: 29.54"   Gusts: NA
Location:  49.87°N, 111.36°W
Report Text: CYXH 260500Z AUTO 25003KT 170V280 9SM SCT170 04/02 A2954 RMK SLP019
Loading
Personal Weather Stations






























Interactive Weather Map
Tropical Storm Tracking
New forecast layout! Learn more

10-Day Weather Forecast

Advertisements
Track Severe Weather on mobile